createdAt,value
2019-05-03T00:02:32.349Z,70.18
2019-05-03T00:05:07.182Z,70.18
2019-05-03T00:07:37.155Z,70.32
2019-05-03T00:10:08.590Z,70.79
2019-05-03T00:12:38.305Z,70.97
2019-05-03T00:15:21.579Z,70.60
2019-05-03T00:17:52.642Z,70.43
2019-05-03T00:20:22.517Z,70.82
2019-05-03T00:22:52.439Z,71.15
2019-05-03T00:25:22.266Z,71.34
2019-05-03T00:27:52.763Z,71.13
2019-05-03T00:30:22.750Z,70.88
2019-05-03T00:32:52.436Z,71.05
2019-05-03T00:35:37.028Z,71.35
2019-05-03T00:38:08.342Z,71.31
2019-05-03T00:40:38.025Z,71.24
2019-05-03T00:43:07.564Z,71.00
2019-05-03T00:45:37.306Z,70.33
2019-05-03T00:48:07.144Z,70.57
2019-05-03T00:50:36.823Z,71.00
2019-05-03T00:53:11.603Z,70.78
2019-05-03T00:55:41.987Z,71.37
2019-05-03T00:58:11.947Z,71.80
2019-05-03T01:00:42.427Z,71.44
2019-05-03T01:03:12.578Z,71.09
2019-05-03T01:05:42.458Z,71.63
2019-05-03T01:08:12.748Z,71.09
2019-05-03T01:10:42.548Z,70.99
2019-05-03T01:13:12.483Z,70.94
2019-05-03T01:15:43.844Z,70.62
2019-05-03T01:18:15.152Z,70.50
2019-05-03T01:20:44.879Z,70.44
2019-05-03T01:23:14.744Z,70.42
2019-05-03T01:25:44.364Z,70.41
2019-05-03T01:28:14.103Z,70.93
2019-05-03T01:30:43.827Z,70.81
2019-05-03T01:33:13.563Z,71.61
2019-05-03T01:35:43.385Z,71.22
2019-05-03T01:38:13.079Z,71.81
2019-05-03T01:40:42.688Z,71.27
2019-05-03T01:43:12.341Z,70.63
2019-05-03T01:45:42.510Z,70.80
2019-05-03T01:48:29.442Z,70.87
2019-05-03T01:51:16.747Z,70.61
2019-05-03T01:53:48.054Z,71.20
2019-05-03T01:56:17.824Z,71.12
2019-05-03T01:58:47.518Z,70.60
2019-05-03T02:01:27.442Z,70.61
2019-05-03T02:04:03.028Z,70.43
2019-05-03T02:06:32.865Z,70.57
2019-05-03T02:09:02.554Z,71.62
2019-05-03T02:11:32.596Z,70.81
2019-05-03T02:14:02.558Z,70.16
2019-05-03T02:16:32.555Z,69.70
2019-05-03T02:19:02.521Z,70.20
2019-05-03T02:21:32.314Z,69.88
2019-05-03T02:24:02.623Z,70.12
2019-05-03T02:26:32.597Z,69.91
2019-05-03T02:29:02.345Z,70.18
2019-05-03T02:31:32.831Z,70.29
2019-05-03T02:34:03.655Z,70.13
2019-05-03T02:36:34.001Z,69.74
2019-05-03T02:39:06.676Z,70.20
2019-05-03T02:41:36.332Z,70.16
2019-05-03T02:44:06.352Z,70.78
2019-05-03T02:46:49.543Z,70.92
2019-05-03T02:49:25.548Z,70.84
2019-05-03T02:51:55.616Z,70.08
2019-05-03T02:54:26.892Z,70.29
2019-05-03T02:56:56.984Z,70.64
2019-05-03T02:59:28.312Z,70.79
2019-05-03T03:01:58.082Z,70.19
2019-05-03T03:04:28.178Z,70.22
2019-05-03T03:06:59.009Z,70.65
2019-05-03T03:09:29.104Z,70.78
2019-05-03T03:12:00.175Z,70.97
2019-05-03T03:14:31.364Z,70.95
2019-05-03T03:17:06.431Z,71.11
2019-05-03T03:19:36.746Z,71.39
2019-05-03T03:22:08.214Z,71.50
2019-05-03T03:24:42.023Z,71.39
2019-05-03T03:27:16.668Z,71.31
2019-05-03T03:29:51.091Z,71.10
2019-05-03T03:32:29.596Z,71.10
2019-05-03T03:35:21.280Z,70.84
2019-05-03T03:37:50.448Z,71.04
2019-05-03T03:40:21.845Z,71.30
2019-05-03T03:42:55.640Z,71.70
2019-05-03T03:45:25.529Z,72.09
2019-05-03T03:47:56.657Z,72.12
2019-05-03T03:50:28.297Z,72.16
2019-05-03T03:53:00.025Z,72.20
2019-05-03T03:55:35.328Z,72.10
2019-05-03T03:58:06.629Z,70.97
2019-05-03T04:00:37.131Z,70.69
2019-05-03T04:03:07.310Z,70.87
2019-05-03T04:05:37.446Z,70.59
2019-05-03T04:08:07.848Z,70.50
2019-05-03T04:10:38.577Z,70.85
2019-05-03T04:13:10.928Z,71.03
2019-05-03T04:15:48.731Z,70.79
2019-05-03T04:18:20.713Z,70.74
2019-05-03T04:20:51.120Z,70.82
2019-05-03T04:23:22.420Z,71.16
2019-05-03T04:25:56.297Z,71.23
2019-05-03T04:28:25.698Z,71.27
2019-05-03T04:30:56.238Z,71.53
2019-05-03T04:33:27.099Z,71.56
2019-05-03T04:35:57.405Z,71.65
2019-05-03T04:38:27.693Z,71.62
2019-05-03T04:40:57.872Z,71.66
2019-05-03T04:43:28.372Z,72.09
2019-05-03T04:46:09.310Z,72.05
2019-05-03T04:48:39.439Z,72.20
2019-05-03T04:51:09.811Z,72.48
2019-05-03T04:53:41.865Z,72.96
2019-05-03T04:56:12.060Z,72.29
2019-05-03T04:58:45.668Z,72.60
2019-05-03T05:01:15.739Z,72.41
2019-05-03T05:03:46.361Z,72.54
2019-05-03T05:06:16.652Z,72.28
2019-05-03T05:08:46.955Z,71.91
2019-05-03T05:11:17.290Z,71.48
2019-05-03T05:13:47.645Z,71.60
2019-05-03T05:16:18.105Z,71.16
2019-05-03T05:18:50.239Z,70.95
2019-05-03T05:21:25.231Z,71.37
2019-05-03T05:24:05.272Z,70.90
2019-05-03T05:26:35.344Z,70.43
2019-05-03T05:29:10.001Z,70.48
2019-05-03T05:31:40.142Z,70.12
2019-05-03T05:34:10.610Z,69.78
2019-05-03T05:36:40.713Z,69.76
2019-05-03T05:39:11.073Z,68.86
2019-05-03T05:41:41.500Z,68.47
2019-05-03T05:44:12.271Z,68.00
2019-05-03T05:46:46.944Z,68.11
2019-05-03T05:49:35.180Z,67.11
2019-05-03T05:52:05.649Z,67.68
2019-05-03T05:54:37.307Z,66.23
2019-05-03T05:57:25.746Z,66.23
2019-05-03T05:59:59.096Z,66.24
2019-05-03T06:02:29.646Z,65.38
2019-05-03T06:04:59.854Z,65.04
2019-05-03T06:07:37.737Z,64.70
2019-05-03T06:10:26.549Z,64.56
2019-05-03T06:13:01.905Z,64.03
2019-05-03T06:15:46.010Z,63.52
2019-05-03T06:18:30.014Z,64.14
2019-05-03T06:21:00.096Z,62.79
2019-05-03T06:23:32.122Z,62.61
2019-05-03T06:26:04.973Z,61.84
2019-05-03T06:28:36.007Z,61.77
2019-05-03T06:31:10.381Z,61.72
2019-05-03T06:33:40.626Z,61.13
2019-05-03T06:36:10.917Z,60.29
2019-05-03T06:38:42.353Z,59.60
2019-05-03T06:41:14.871Z,58.87
2019-05-03T06:43:48.563Z,59.30
2019-05-03T06:46:18.363Z,58.69
2019-05-03T06:48:48.805Z,59.15
2019-05-03T06:51:20.154Z,58.33
2019-05-03T06:53:50.839Z,58.00
2019-05-03T06:56:27.618Z,57.76
2019-05-03T06:58:54.845Z,58.23
2019-05-03T07:01:26.397Z,57.66
2019-05-03T07:04:00.894Z,57.30
2019-05-03T07:06:40.495Z,57.23
2019-05-03T07:09:16.226Z,57.23
2019-05-03T07:11:46.612Z,56.77
2019-05-03T07:14:16.918Z,57.19
2019-05-03T07:16:47.338Z,56.98
2019-05-03T07:19:17.594Z,56.93
2019-05-03T07:21:47.941Z,56.52
2019-05-03T07:24:18.233Z,56.52
2019-05-03T07:26:48.657Z,56.19
2019-05-03T07:29:18.767Z,56.04
2019-05-03T07:31:49.394Z,56.47
2019-05-03T07:34:19.540Z,56.38
2019-05-03T07:36:49.856Z,54.67
2019-05-03T07:39:20.003Z,53.39
2019-05-03T07:41:50.266Z,53.25
2019-05-03T07:44:20.763Z,53.73
2019-05-03T07:46:51.715Z,54.30
2019-05-03T07:49:22.153Z,53.64
2019-05-03T07:51:52.647Z,53.60
2019-05-03T07:54:24.696Z,53.65
2019-05-03T07:56:56.399Z,52.27
2019-05-03T07:59:26.772Z,52.47
2019-05-03T08:01:58.632Z,52.80
2019-05-03T08:04:28.927Z,50.73
2019-05-03T08:06:59.114Z,50.71
2019-05-03T08:09:29.158Z,51.47
2019-05-03T08:11:59.321Z,50.37
2019-05-03T08:14:29.642Z,50.86
2019-05-03T08:16:59.812Z,51.44
2019-05-03T08:19:30.279Z,51.03
2019-05-03T08:22:01.940Z,50.99
2019-05-03T08:24:34.579Z,50.63
2019-05-03T08:27:05.274Z,50.57
2019-05-03T08:29:35.981Z,51.69
2019-05-03T08:32:18.131Z,50.31
2019-05-03T08:34:50.200Z,49.27
2019-05-03T08:37:21.901Z,49.04
2019-05-03T08:39:52.223Z,49.59
2019-05-03T08:42:26.723Z,49.27
2019-05-03T08:44:56.857Z,47.92
2019-05-03T08:47:27.198Z,47.98
2019-05-03T08:49:57.639Z,47.59
2019-05-03T08:52:27.845Z,47.26
2019-05-03T08:54:58.312Z,47.32
2019-05-03T08:57:28.396Z,46.60
2019-05-03T08:59:58.844Z,47.32
2019-05-03T09:02:29.408Z,47.34
2019-05-03T09:04:59.687Z,48.02
2019-05-03T09:07:29.883Z,47.86
2019-05-03T09:10:05.470Z,47.66
2019-05-03T09:12:55.434Z,47.02
2019-05-03T09:15:26.030Z,46.65
2019-05-03T09:17:56.415Z,46.64
2019-05-03T09:20:26.758Z,46.06
2019-05-03T09:22:57.369Z,45.20
2019-05-03T09:25:27.763Z,44.64
2019-05-03T09:27:57.994Z,44.64
2019-05-03T09:30:28.220Z,45.46
2019-05-03T09:32:58.408Z,45.25
2019-05-03T09:35:32.971Z,44.77
2019-05-03T09:37:59.683Z,44.67
2019-05-03T09:40:30.076Z,44.46
2019-05-03T09:43:00.438Z,45.24
2019-05-03T09:45:30.880Z,45.16
2019-05-03T09:48:01.096Z,44.31
2019-05-03T09:50:31.422Z,44.69
2019-05-03T09:53:01.703Z,44.79
2019-05-03T09:55:35.415Z,42.79
2019-05-03T09:58:05.759Z,43.28
2019-05-03T10:00:36.011Z,43.51
2019-05-03T10:03:06.603Z,43.00
2019-05-03T10:05:37.012Z,43.92
2019-05-03T10:08:07.277Z,42.89
2019-05-03T10:10:55.082Z,43.34
2019-05-03T10:13:27.185Z,42.70
2019-05-03T10:15:56.555Z,42.70
2019-05-03T10:18:28.012Z,42.95
2019-05-03T10:20:58.256Z,43.29
2019-05-03T10:23:31.800Z,42.25
2019-05-03T10:26:04.965Z,42.51
2019-05-03T10:28:34.764Z,42.74
2019-05-03T10:31:07.697Z,42.89
2019-05-03T10:33:40.938Z,42.44
2019-05-03T10:36:11.362Z,42.07
2019-05-03T10:38:41.667Z,41.82
2019-05-03T10:41:11.932Z,42.18
2019-05-03T10:43:42.172Z,41.68
2019-05-03T10:46:12.670Z,42.83
2019-05-03T10:48:45.086Z,43.17
2019-05-03T10:51:15.664Z,43.34
2019-05-03T10:53:47.771Z,40.20
2019-05-03T10:56:28.783Z,41.29
2019-05-03T10:59:09.659Z,41.17
2019-05-03T11:01:47.245Z,40.66
2019-05-03T11:04:17.753Z,40.60
2019-05-03T11:06:47.995Z,41.14
2019-05-03T11:09:18.277Z,40.77
2019-05-03T11:11:48.812Z,40.45
2019-05-03T11:14:19.117Z,40.04
2019-05-03T11:16:49.585Z,39.90
2019-05-03T11:19:19.711Z,39.64
2019-05-03T11:21:50.056Z,39.83
2019-05-03T11:24:23.217Z,39.30
2019-05-03T11:26:55.715Z,39.49
2019-05-03T11:29:25.700Z,39.25
2019-05-03T11:31:57.765Z,39.25
2019-05-03T11:34:30.658Z,37.89
2019-05-03T11:37:18.751Z,36.80
2019-05-03T11:39:49.264Z,38.62
2019-05-03T11:42:19.719Z,38.83
2019-05-03T11:44:50.089Z,39.34
2019-05-03T11:47:20.331Z,40.42
2019-05-03T11:49:50.684Z,40.37
2019-05-03T11:52:21.216Z,40.52
2019-05-03T11:54:51.416Z,40.84
2019-05-03T11:57:28.594Z,41.53
2019-05-03T11:59:58.965Z,41.27
2019-05-03T12:02:29.158Z,40.12
2019-05-03T12:05:04.987Z,40.00
2019-05-03T12:07:39.327Z,39.52
2019-05-03T12:10:17.524Z,40.06
2019-05-03T12:12:41.730Z,40.51
2019-05-03T12:15:12.456Z,40.03
2019-05-03T12:17:53.522Z,41.10
2019-05-03T12:20:17.876Z,42.27
2019-05-03T12:22:48.928Z,41.89
2019-05-03T12:25:20.053Z,42.94
2019-05-03T12:27:50.824Z,42.92
2019-05-03T12:30:21.101Z,42.27
2019-05-03T12:32:51.547Z,42.27
2019-05-03T12:35:21.607Z,42.36
2019-05-03T12:37:52.068Z,41.95
2019-05-03T12:40:22.326Z,41.46
2019-05-03T12:42:54.943Z,41.91
2019-05-03T12:45:24.913Z,42.53
2019-05-03T12:47:55.919Z,42.87
2019-05-03T12:50:26.414Z,43.91
2019-05-03T12:52:56.718Z,45.13
2019-05-03T12:55:26.863Z,45.68
2019-05-03T12:57:57.122Z,47.04
2019-05-03T13:00:48.336Z,46.40
2019-05-03T13:03:18.532Z,46.87
2019-05-03T13:05:48.628Z,47.11
2019-05-03T13:08:41.492Z,46.68
2019-05-03T13:11:12.120Z,46.11
2019-05-03T13:13:42.546Z,46.50
2019-05-03T13:16:15.314Z,44.54
2019-05-03T13:18:45.971Z,44.47
2019-05-03T13:21:16.089Z,44.55
2019-05-03T13:23:46.277Z,43.05
2019-05-03T13:26:16.827Z,42.53
2019-05-03T13:28:47.011Z,41.64
2019-05-03T13:31:17.379Z,40.70
2019-05-03T13:33:47.610Z,40.70
2019-05-03T13:36:18.132Z,40.74
2019-05-03T13:38:48.505Z,39.88
2019-05-03T13:41:18.663Z,40.40
2019-05-03T13:43:48.958Z,42.01
2019-05-03T13:46:19.219Z,41.29
2019-05-03T13:48:49.830Z,40.62
2019-05-03T13:51:20.132Z,38.92
2019-05-03T13:53:50.487Z,39.96
2019-05-03T13:56:20.839Z,40.05
2019-05-03T13:58:51.075Z,41.48
2019-05-03T14:01:21.489Z,41.22
2019-05-03T14:03:51.740Z,41.36
2019-05-03T14:06:22.034Z,43.32
2019-05-03T14:08:54.669Z,41.05
2019-05-03T14:11:25.375Z,41.64
2019-05-03T14:13:55.522Z,42.14
2019-05-03T14:16:25.695Z,40.70
2019-05-03T14:18:57.545Z,40.91
2019-05-03T14:21:32.097Z,41.31
2019-05-03T14:24:13.016Z,41.88
2019-05-03T14:26:44.845Z,40.06
2019-05-03T14:29:15.236Z,41.14
2019-05-03T14:31:45.660Z,41.74
2019-05-03T14:34:17.537Z,42.57
2019-05-03T14:36:48.015Z,41.15
2019-05-03T14:39:18.289Z,41.16
2019-05-03T14:41:48.623Z,40.29
2019-05-03T14:44:18.840Z,39.11
2019-05-03T14:46:49.276Z,39.32
2019-05-03T14:49:19.807Z,40.36
2019-05-03T14:51:50.077Z,40.55
2019-05-03T14:54:21.965Z,42.04
2019-05-03T14:57:09.110Z,42.61
2019-05-03T14:59:56.468Z,42.87
2019-05-03T15:02:40.237Z,41.87
2019-05-03T15:05:00.332Z,42.71
2019-05-03T15:07:30.799Z,42.46
2019-05-03T15:10:00.933Z,43.03
2019-05-03T15:12:31.147Z,42.26
2019-05-03T15:15:01.618Z,42.86
2019-05-03T15:17:32.071Z,42.96
2019-05-03T15:20:02.331Z,44.13
2019-05-03T15:22:34.598Z,43.83
2019-05-03T15:25:05.076Z,43.87
2019-05-03T15:27:35.765Z,42.71
2019-05-03T15:30:08.613Z,42.57
2019-05-03T15:32:39.105Z,40.29
2019-05-03T15:35:10.119Z,42.16
2019-05-03T15:37:40.492Z,42.13
2019-05-03T15:40:11.352Z,41.00
2019-05-03T15:42:45.065Z,40.60
2019-05-03T15:45:31.757Z,38.72
2019-05-03T15:48:09.617Z,36.91
2019-05-03T15:50:39.961Z,36.08
2019-05-03T15:53:10.366Z,35.45
2019-05-03T15:55:40.506Z,36.19
2019-05-03T15:58:10.806Z,38.59
2019-05-03T16:00:41.107Z,40.90
2019-05-03T16:03:11.627Z,40.51
2019-05-03T16:05:41.935Z,42.54
2019-05-03T16:08:12.321Z,43.80
2019-05-03T16:10:42.632Z,44.75
2019-05-03T16:13:14.294Z,45.10
2019-05-03T16:15:44.669Z,44.94
2019-05-03T16:18:14.967Z,47.11
2019-05-03T16:20:45.437Z,48.61
2019-05-03T16:23:15.849Z,49.68
2019-05-03T16:25:46.012Z,49.75
2019-05-03T16:28:20.337Z,49.88
2019-05-03T16:30:51.321Z,49.64
2019-05-03T16:33:27.075Z,49.56
2019-05-03T16:35:52.590Z,50.19
2019-05-03T16:38:24.672Z,50.01
2019-05-03T16:40:54.847Z,50.32
2019-05-03T16:43:25.660Z,50.69
2019-05-03T16:45:56.238Z,52.91
2019-05-03T16:48:26.755Z,52.55
2019-05-03T16:50:56.916Z,53.17
2019-05-03T16:53:27.227Z,53.68
2019-05-03T16:55:57.540Z,53.17
2019-05-03T16:58:27.767Z,52.83
2019-05-03T17:00:58.195Z,50.82
2019-05-03T17:03:38.531Z,51.09
2019-05-03T17:06:14.748Z,51.54
2019-05-03T17:08:46.302Z,52.03
2019-05-03T17:11:21.059Z,52.00
2019-05-03T17:13:51.731Z,52.08
2019-05-03T17:16:22.124Z,52.38
2019-05-03T17:18:52.718Z,52.76
2019-05-03T17:21:25.327Z,52.85
2019-05-03T17:23:54.106Z,52.94
2019-05-03T17:26:25.016Z,53.01
2019-05-03T17:28:55.597Z,53.24
2019-05-03T17:31:26.126Z,52.99
2019-05-03T17:33:56.825Z,52.92
2019-05-03T17:36:27.572Z,53.21
2019-05-03T17:38:59.552Z,53.50
2019-05-03T17:41:34.748Z,53.27
2019-05-03T17:44:07.164Z,53.00
2019-05-03T17:46:37.833Z,52.71
2019-05-03T17:49:07.982Z,52.35
2019-05-03T17:51:39.891Z,52.06
2019-05-03T17:54:25.537Z,51.97
2019-05-03T17:56:57.779Z,51.97
2019-05-03T17:59:30.126Z,51.99
2019-05-03T18:02:18.438Z,52.48
2019-05-03T18:05:06.739Z,52.98
2019-05-03T18:07:50.671Z,52.33
2019-05-03T18:10:21.075Z,52.30
2019-05-03T18:12:51.252Z,52.40
2019-05-03T18:15:21.391Z,52.61
2019-05-03T18:17:51.768Z,52.88
2019-05-03T18:20:22.187Z,53.18
2019-05-03T18:22:54.508Z,53.91
2019-05-03T18:25:24.931Z,53.89
2019-05-03T18:27:55.320Z,54.84
2019-05-03T18:30:25.520Z,54.61
2019-05-03T18:32:55.798Z,54.47
2019-05-03T18:35:25.958Z,54.30
2019-05-03T18:37:58.931Z,54.89
2019-05-03T18:40:30.418Z,54.82
2019-05-03T18:43:04.423Z,54.99
2019-05-03T18:45:52.010Z,55.39
2019-05-03T18:48:25.915Z,56.24
2019-05-03T18:50:55.089Z,56.61
2019-05-03T18:53:25.330Z,56.76
2019-05-03T18:55:55.454Z,57.10
2019-05-03T18:58:25.597Z,57.30
2019-05-03T19:00:55.829Z,56.75
2019-05-03T19:03:26.037Z,56.97
2019-05-03T19:05:58.183Z,56.90
2019-05-03T19:08:28.833Z,57.70
2019-05-03T19:11:00.242Z,57.70
2019-05-03T19:13:34.808Z,56.99
2019-05-03T19:16:06.231Z,56.79
2019-05-03T19:18:37.624Z,56.54
2019-05-03T19:21:07.448Z,57.42
2019-05-03T19:23:37.060Z,57.23
2019-05-03T19:26:06.802Z,56.93
2019-05-03T19:28:39.612Z,57.32
2019-05-03T19:31:09.650Z,57.43
2019-05-03T19:33:39.374Z,57.39
2019-05-03T19:36:09.031Z,57.86
2019-05-03T19:38:38.757Z,57.28
2019-05-03T19:41:08.413Z,57.32
2019-05-03T19:43:38.290Z,58.04
2019-05-03T19:46:07.997Z,58.33
2019-05-03T19:48:37.744Z,58.70
2019-05-03T19:51:07.588Z,58.56
2019-05-03T19:53:50.529Z,58.93
2019-05-03T19:56:20.430Z,58.49
2019-05-03T19:58:51.219Z,58.25
2019-05-03T20:01:26.782Z,57.84
2019-05-03T20:03:56.222Z,57.21
2019-05-03T20:06:27.391Z,57.79
2019-05-03T20:09:08.469Z,57.13
2019-05-03T20:11:38.357Z,57.33
2019-05-03T20:14:08.089Z,57.41
2019-05-03T20:16:37.796Z,57.20
2019-05-03T20:19:17.964Z,56.84
2019-05-03T20:21:39.043Z,57.60
2019-05-03T20:24:08.831Z,56.63
2019-05-03T20:26:38.442Z,57.05
2019-05-03T20:29:08.086Z,56.58
2019-05-03T20:31:39.493Z,56.42
2019-05-03T20:34:09.151Z,57.19
2019-05-03T20:36:38.840Z,57.30
2019-05-03T20:39:08.725Z,57.86
2019-05-03T20:41:38.401Z,57.95
2019-05-03T20:44:09.731Z,58.17
2019-05-03T20:46:43.645Z,58.79
2019-05-03T20:49:15.128Z,59.96
2019-05-03T20:51:47.119Z,60.43
2019-05-03T20:54:16.112Z,60.49
2019-05-03T20:56:45.816Z,60.65
2019-05-03T20:59:15.372Z,61.07
2019-05-03T21:01:45.382Z,61.33
2019-05-03T21:04:15.516Z,61.71
2019-05-03T21:06:45.738Z,61.50
2019-05-03T21:09:15.699Z,61.64
2019-05-03T21:11:45.536Z,61.77
2019-05-03T21:14:15.640Z,61.29
2019-05-03T21:16:49.723Z,61.31
2019-05-03T21:19:19.237Z,60.71
2019-05-03T21:21:50.579Z,60.34
2019-05-03T21:24:24.141Z,60.63
2019-05-03T21:26:54.619Z,61.30
2019-05-03T21:29:24.720Z,61.52
2019-05-03T21:31:55.269Z,61.73
2019-05-03T21:34:25.283Z,62.04
2019-05-03T21:36:55.138Z,62.18
2019-05-03T21:39:24.877Z,62.06
2019-05-03T21:41:55.555Z,61.52
2019-05-03T21:44:32.111Z,62.03
2019-05-03T21:47:04.726Z,62.22
2019-05-03T21:49:36.016Z,62.31
2019-05-03T21:52:05.805Z,62.40
2019-05-03T21:54:35.649Z,62.43
2019-05-03T21:57:05.497Z,62.90
2019-05-03T21:59:35.488Z,62.78
2019-05-03T22:02:05.548Z,62.71
2019-05-03T22:04:35.373Z,62.97
2019-05-03T22:07:05.546Z,63.28
2019-05-03T22:09:36.552Z,63.40
2019-05-03T22:12:06.420Z,63.79
2019-05-03T22:14:40.823Z,64.24
2019-05-03T22:17:28.358Z,64.13
2019-05-03T22:19:59.739Z,63.95
2019-05-03T22:22:36.523Z,64.38
2019-05-03T22:25:12.207Z,64.52
2019-05-03T22:27:45.359Z,64.89
2019-05-03T22:30:15.304Z,65.31
2019-05-03T22:32:45.010Z,65.87
2019-05-03T22:35:15.690Z,65.34
2019-05-03T22:37:45.808Z,66.25
2019-05-03T22:40:15.633Z,66.56
2019-05-03T22:42:45.699Z,66.83
2019-05-03T22:45:16.000Z,66.78
2019-05-03T22:47:45.820Z,66.54
2019-05-03T22:50:15.640Z,66.61
2019-05-03T22:52:45.615Z,66.67
2019-05-03T22:55:15.431Z,66.59
2019-05-03T22:57:45.326Z,66.14
2019-05-03T23:00:15.218Z,65.73
2019-05-03T23:02:45.571Z,65.14
2019-05-03T23:05:15.620Z,65.06
2019-05-03T23:07:46.966Z,65.30
2019-05-03T23:10:17.428Z,65.60
2019-05-03T23:12:47.421Z,66.02
2019-05-03T23:15:17.384Z,66.10
2019-05-03T23:17:47.064Z,66.14
2019-05-03T23:20:34.571Z,66.26
2019-05-03T23:23:05.408Z,66.39
2019-05-03T23:25:35.630Z,66.52
2019-05-03T23:28:05.644Z,66.72
2019-05-03T23:30:35.355Z,66.94
2019-05-03T23:33:05.333Z,67.04
2019-05-03T23:35:35.089Z,66.58
2019-05-03T23:38:04.942Z,66.44
2019-05-03T23:40:34.793Z,67.09
2019-05-03T23:43:05.200Z,66.76
2019-05-03T23:45:35.047Z,66.90
2019-05-03T23:48:04.785Z,67.00
2019-05-03T23:50:35.367Z,67.62
2019-05-03T23:53:05.395Z,67.71
2019-05-03T23:55:48.864Z,67.59
2019-05-03T23:58:18.676Z,67.42
